Pagrindinis puslapis
METAR-TAF:

METAR-TAF

Oro uostai :

Stambulas, Turkija

platuma: 41-16-31N, ilguma: 028-45-07E, Aukštis: 99 m

Dabartinis oras

Ataskaita buvo paskelbta 47 minutes, ne 03:50 UTC
Vėjas 5 kt iš Pietų, svyruoja nuo Pietų/Pietryčių ir Vakarų
Temperatūra 7°C
Drėgmė 87%
Slėgis 1013 hPa
Matomumas: 7000 m

METAR: LTFM 100350Z 19005KT 160V270 7000 NSC 07/05 Q1013 NOSIG

Laikas: 07:37 (04:37 UTC)

Prognozė

Ataskaita buvo paskelbta 5 valandos ir 57 minutes, ne 22:40 UTC
Prognozė galioja nuo 10 metu 00 UTC su 11 metu 06 UTC
Vėjas 2 kt nuo kintamojo kryptimis
Matomumas 10 km arba daugiau
nėra debesų žemiau 1500 m ir nėra kamuolinių lietaus debesų
Tikimybė 40%
nuo 10 metu 03 UTC su 10 metu 06 UTC
Matomumas: 4000 m
rūkana

TAF: LTFM 092240Z 1000/1106 VRB02KT CAVOK PROB40 1003/1006 4000 BR

Orai ataskaitas ir orų prognozės (METAR, TAF).

turimą stotys yra geltonos ir raudonos taškus žemėlapyje.

Perkelti pele per norėdami pamatyti stoties vardą.

Tada spustelėkite, norėdami matyti oro stebėjimo ir prognozės.

Norėdami pakeisti žemėlapį: spustelėkite ant žalios mygtukų su juodo kryžiaus žemyn,; žalią mygtuką su brūkšneliu, jei norite nutolinti; arba žalių rodyklių gretimoms žemėlapius.


METAR-TAF: